createdAt,value
2023-05-11T00:01:45.539Z,59.22
2023-05-11T00:04:12.285Z,59.77
2023-05-11T00:06:39.080Z,60.31
2023-05-11T00:09:05.800Z,60.61
2023-05-11T00:11:32.657Z,60.44
2023-05-11T00:13:59.346Z,59.64
2023-05-11T00:16:26.267Z,59.80
2023-05-11T00:18:53.031Z,58.53
2023-05-11T00:21:19.782Z,58.46
2023-05-11T00:23:46.414Z,58.13
2023-05-11T00:26:13.106Z,58.99
2023-05-11T00:28:40.092Z,58.81
2023-05-11T00:31:06.860Z,59.07
2023-05-11T00:33:33.550Z,60.01
2023-05-11T00:36:00.201Z,59.00
2023-05-11T00:38:26.933Z,58.82
2023-05-11T00:40:53.650Z,58.38
2023-05-11T00:43:20.720Z,58.41
2023-05-11T00:45:49.771Z,57.16
2023-05-11T00:48:16.940Z,57.19
2023-05-11T00:50:44.565Z,58.20
2023-05-11T00:53:11.746Z,57.43
2023-05-11T00:55:38.573Z,57.18
2023-05-11T00:58:08.376Z,57.08
2023-05-11T01:00:36.723Z,57.58
2023-05-11T01:03:04.636Z,56.54
2023-05-11T01:05:44.551Z,56.98
2023-05-11T01:08:56.865Z,56.86
2023-05-11T01:11:37.426Z,56.96
2023-05-11T01:14:16.696Z,56.67
2023-05-11T01:16:49.456Z,56.52
2023-05-11T01:19:41.465Z,56.39
2023-05-11T01:23:05.395Z,56.01
2023-05-11T01:26:12.209Z,55.90
2023-05-11T01:29:16.627Z,56.22
2023-05-11T01:31:47.799Z,56.27
2023-05-11T01:34:22.527Z,56.75
2023-05-11T01:37:05.126Z,56.40
2023-05-11T01:39:36.168Z,56.89
2023-05-11T01:42:09.900Z,56.61
2023-05-11T01:44:43.006Z,55.78
2023-05-11T01:47:11.051Z,56.46
2023-05-11T01:49:40.859Z,56.68
2023-05-11T01:52:09.865Z,56.53
2023-05-11T01:54:38.651Z,56.65
2023-05-11T01:57:07.061Z,56.50
2023-05-11T01:59:35.958Z,56.39
2023-05-11T02:02:04.055Z,56.53
2023-05-11T02:04:31.821Z,56.93
2023-05-11T02:07:01.260Z,56.56
2023-05-11T02:09:31.825Z,56.81
2023-05-11T02:12:01.830Z,56.24
2023-05-11T02:14:34.294Z,56.73
2023-05-11T02:17:03.614Z,56.93
2023-05-11T02:19:33.975Z,56.48
2023-05-11T02:22:01.621Z,56.89
2023-05-11T02:24:30.786Z,57.08
2023-05-11T02:26:59.001Z,57.05
2023-05-11T02:29:26.329Z,57.16
2023-05-11T02:31:57.783Z,58.89
2023-05-11T02:34:32.947Z,59.40
2023-05-11T02:37:02.575Z,58.51
2023-05-11T02:39:36.137Z,58.87
2023-05-11T02:42:14.298Z,59.99
2023-05-11T02:44:50.439Z,59.69
2023-05-11T02:47:18.793Z,59.14
2023-05-11T02:49:53.689Z,59.05
2023-05-11T02:52:27.397Z,58.65
2023-05-11T02:54:55.091Z,58.04
2023-05-11T02:57:21.860Z,58.10
2023-05-11T02:59:50.042Z,58.77
2023-05-11T03:02:16.975Z,59.16
2023-05-11T03:04:43.917Z,60.23
2023-05-11T03:07:11.004Z,60.99
2023-05-11T03:09:38.015Z,60.67
2023-05-11T03:12:05.668Z,60.42
2023-05-11T03:14:36.164Z,59.15
2023-05-11T03:17:03.529Z,59.75
2023-05-11T03:19:31.826Z,59.31
2023-05-11T03:22:00.728Z,59.17
2023-05-11T03:24:27.945Z,59.02
2023-05-11T03:26:56.082Z,59.27
2023-05-11T03:29:27.193Z,58.40
2023-05-11T03:31:55.433Z,58.76
2023-05-11T03:34:23.400Z,58.71
2023-05-11T03:36:51.078Z,58.21
2023-05-11T03:39:19.956Z,57.43
2023-05-11T03:41:50.460Z,57.35
2023-05-11T03:44:21.763Z,57.76
2023-05-11T03:46:50.989Z,58.51
2023-05-11T03:49:19.576Z,58.61
2023-05-11T03:51:46.934Z,58.36
2023-05-11T03:54:14.216Z,58.03
2023-05-11T03:56:40.949Z,57.66
2023-05-11T03:59:08.492Z,56.20
2023-05-11T04:01:35.508Z,56.85
2023-05-11T04:04:02.334Z,56.82
2023-05-11T04:06:29.089Z,56.71
2023-05-11T04:09:05.128Z,56.78
2023-05-11T04:11:36.268Z,57.04
2023-05-11T04:14:02.926Z,56.41
2023-05-11T04:16:29.850Z,57.26
2023-05-11T04:18:56.689Z,58.03
2023-05-11T04:21:23.371Z,58.13
2023-05-11T04:23:50.130Z,57.48
2023-05-11T04:26:17.813Z,57.33
2023-05-11T04:28:44.550Z,57.36
2023-05-11T04:31:11.308Z,57.28
2023-05-11T04:33:38.157Z,57.11
2023-05-11T04:36:05.456Z,57.36
2023-05-11T04:38:32.138Z,56.68
2023-05-11T04:41:03.138Z,56.91
2023-05-11T04:43:29.937Z,56.57
2023-05-11T04:45:56.933Z,56.45
2023-05-11T04:48:26.961Z,56.83
2023-05-11T04:50:55.348Z,56.99
2023-05-11T04:53:25.363Z,57.19
2023-05-11T04:55:52.626Z,58.16
2023-05-11T04:58:19.332Z,58.45
2023-05-11T05:00:46.054Z,58.25
2023-05-11T05:03:12.933Z,57.98
2023-05-11T05:05:39.673Z,56.53
2023-05-11T05:08:07.424Z,57.39
2023-05-11T05:10:34.114Z,57.31
2023-05-11T05:13:00.777Z,56.43
2023-05-11T05:15:27.442Z,56.69
2023-05-11T05:17:54.235Z,57.22
2023-05-11T05:20:22.148Z,57.17
2023-05-11T05:22:48.772Z,57.47
2023-05-11T05:25:15.586Z,57.58
2023-05-11T05:27:42.593Z,57.28
2023-05-11T05:30:16.246Z,56.86
2023-05-11T05:32:43.457Z,56.34
2023-05-11T05:35:10.311Z,56.98
2023-05-11T05:37:37.705Z,56.22
2023-05-11T05:40:05.636Z,56.28
2023-05-11T05:42:35.555Z,56.10
2023-05-11T05:45:03.095Z,55.83
2023-05-11T05:47:31.281Z,55.90
2023-05-11T05:49:58.042Z,55.57
2023-05-11T05:52:24.987Z,55.86
2023-05-11T05:54:52.567Z,55.89
2023-05-11T05:57:19.229Z,55.29
2023-05-11T05:59:46.324Z,55.20
2023-05-11T06:02:14.888Z,55.74
2023-05-11T06:04:42.273Z,55.47
2023-05-11T06:07:09.514Z,55.66
2023-05-11T06:09:39.036Z,55.87
2023-05-11T06:12:06.202Z,54.92
2023-05-11T06:14:35.505Z,53.06
2023-05-11T06:17:03.133Z,52.74
2023-05-11T06:19:29.882Z,52.79
2023-05-11T06:21:56.931Z,52.66
2023-05-11T06:24:23.617Z,52.83
2023-05-11T06:26:50.416Z,53.19
2023-05-11T06:29:19.182Z,53.83
2023-05-11T06:31:46.326Z,53.16
2023-05-11T06:34:13.060Z,52.32
2023-05-11T06:36:39.955Z,51.36
2023-05-11T06:39:06.905Z,51.87
2023-05-11T06:41:33.704Z,52.34
2023-05-11T06:44:00.804Z,51.51
2023-05-11T06:46:35.410Z,52.10
2023-05-11T06:49:02.206Z,52.28
2023-05-11T06:51:30.106Z,52.96
2023-05-11T06:53:56.774Z,53.18
2023-05-11T06:56:23.479Z,52.24
2023-05-11T06:58:50.275Z,52.13
2023-05-11T07:01:17.247Z,52.23
2023-05-11T07:03:44.190Z,51.94
2023-05-11T07:06:11.043Z,51.30
2023-05-11T07:08:38.034Z,50.97
2023-05-11T07:11:04.749Z,51.72
2023-05-11T07:13:31.460Z,51.51
2023-05-11T07:15:58.341Z,50.56
2023-05-11T07:18:25.098Z,50.64
2023-05-11T07:20:51.888Z,50.86
2023-05-11T07:23:18.553Z,48.15
2023-05-11T07:25:45.261Z,49.78
2023-05-11T07:28:12.025Z,50.76
2023-05-11T07:30:38.688Z,49.91
2023-05-11T07:33:06.642Z,49.63
2023-05-11T07:35:33.355Z,50.59
2023-05-11T07:38:00.126Z,50.64
2023-05-11T07:40:27.035Z,50.84
2023-05-11T07:42:54.165Z,50.68
2023-05-11T07:45:20.830Z,50.19
2023-05-11T07:47:47.685Z,51.02
2023-05-11T07:50:14.497Z,50.76
2023-05-11T07:52:41.962Z,50.56
2023-05-11T07:55:08.766Z,49.56
2023-05-11T07:57:35.562Z,50.39
2023-05-11T08:00:03.834Z,50.22
2023-05-11T08:02:38.602Z,48.81
2023-05-11T08:05:05.811Z,50.07
2023-05-11T08:07:32.457Z,49.32
2023-05-11T08:09:59.249Z,50.34
2023-05-11T08:12:26.155Z,49.21
2023-05-11T08:14:52.802Z,50.58
2023-05-11T08:17:19.499Z,48.49
2023-05-11T08:19:46.606Z,48.60
2023-05-11T08:22:13.440Z,48.61
2023-05-11T08:24:40.332Z,48.90
2023-05-11T08:27:07.026Z,48.03
2023-05-11T08:29:33.889Z,48.86
2023-05-11T08:32:01.157Z,50.05
2023-05-11T08:34:27.896Z,50.17
2023-05-11T08:36:56.006Z,50.12
2023-05-11T08:39:39.028Z,49.11
2023-05-11T08:42:10.461Z,50.78
2023-05-11T08:44:39.116Z,48.74
2023-05-11T08:47:21.790Z,48.82
2023-05-11T08:49:51.759Z,49.20
2023-05-11T08:52:18.940Z,49.44
2023-05-11T08:54:46.588Z,50.12
2023-05-11T08:57:14.987Z,49.87
2023-05-11T08:59:44.564Z,49.12
2023-05-11T09:02:16.340Z,47.52
2023-05-11T09:04:46.015Z,48.00
2023-05-11T09:07:17.392Z,48.77
2023-05-11T09:09:45.567Z,46.25
2023-05-11T09:12:12.608Z,47.21
2023-05-11T09:14:39.588Z,48.48
2023-05-11T09:17:06.519Z,47.39
2023-05-11T09:19:33.414Z,48.08
2023-05-11T09:22:00.684Z,47.89
2023-05-11T09:24:28.099Z,47.70
2023-05-11T09:27:09.079Z,48.08
2023-05-11T09:29:36.007Z,47.74
2023-05-11T09:32:02.820Z,48.27
2023-05-11T09:34:29.591Z,48.59
2023-05-11T09:36:57.481Z,47.98
2023-05-11T09:39:44.111Z,47.88
2023-05-11T09:42:23.949Z,48.19
2023-05-11T09:44:50.714Z,48.53
2023-05-11T09:47:19.245Z,49.47
2023-05-11T09:49:47.751Z,49.34
2023-05-11T09:52:16.918Z,48.97
2023-05-11T09:54:52.850Z,46.90
2023-05-11T09:57:30.695Z,48.11
2023-05-11T09:59:59.612Z,46.92
2023-05-11T10:02:32.219Z,46.70
2023-05-11T10:05:11.876Z,47.79
2023-05-11T10:07:39.258Z,47.69
2023-05-11T10:10:08.015Z,48.46
2023-05-11T10:12:38.605Z,49.35
2023-05-11T10:15:07.757Z,48.43
2023-05-11T10:17:35.424Z,48.58
2023-05-11T10:20:04.075Z,48.58
2023-05-11T10:22:31.745Z,48.59
2023-05-11T10:24:59.895Z,48.17
2023-05-11T10:27:27.237Z,49.13
2023-05-11T10:29:54.319Z,48.37
2023-05-11T10:32:21.537Z,48.79
2023-05-11T10:34:48.618Z,48.79
2023-05-11T10:37:15.662Z,48.41
2023-05-11T10:39:44.330Z,48.54
2023-05-11T10:42:29.531Z,48.80
2023-05-11T10:45:24.076Z,48.50
2023-05-11T10:48:24.987Z,49.11
2023-05-11T10:51:01.032Z,48.61
2023-05-11T10:53:46.756Z,49.59
2023-05-11T10:56:35.316Z,47.69
2023-05-11T10:59:07.733Z,47.99
2023-05-11T11:01:42.034Z,47.84
2023-05-11T11:04:11.109Z,48.39
2023-05-11T11:06:43.986Z,48.35
2023-05-11T11:09:15.874Z,48.31
2023-05-11T11:11:48.086Z,46.49
2023-05-11T11:14:16.478Z,47.49
2023-05-11T11:17:15.673Z,46.94
2023-05-11T11:19:43.474Z,46.44
2023-05-11T11:22:38.916Z,47.49
2023-05-11T11:25:07.831Z,46.35
2023-05-11T11:27:40.376Z,46.61
2023-05-11T11:30:20.200Z,47.29
2023-05-11T11:32:55.690Z,46.66
2023-05-11T11:35:40.654Z,47.20
2023-05-11T11:38:15.836Z,47.91
2023-05-11T11:43:21.634Z,47.92
2023-05-11T11:46:04.085Z,48.28
2023-05-11T11:48:33.667Z,48.85
2023-05-11T11:51:14.040Z,47.63
2023-05-11T11:53:41.205Z,47.88
2023-05-11T11:56:13.913Z,47.66
2023-05-11T11:58:43.664Z,47.40
2023-05-11T12:01:14.389Z,47.11
2023-05-11T12:03:43.967Z,47.80
2023-05-11T12:06:12.111Z,47.33
2023-05-11T12:08:40.303Z,46.81
2023-05-11T12:11:07.938Z,47.00
2023-05-11T12:13:35.847Z,46.50
2023-05-11T12:16:12.829Z,46.35
2023-05-11T12:18:40.263Z,45.65
2023-05-11T12:21:07.345Z,46.18
2023-05-11T12:23:34.129Z,46.81
2023-05-11T12:26:05.961Z,47.06
2023-05-11T12:28:36.083Z,47.43
2023-05-11T12:31:02.786Z,47.44
2023-05-11T12:33:29.476Z,46.21
2023-05-11T12:35:57.240Z,46.61
2023-05-11T12:38:24.104Z,46.06
2023-05-11T12:40:53.121Z,46.61
2023-05-11T12:43:22.269Z,47.37
2023-05-11T12:45:49.388Z,47.38
2023-05-11T12:48:16.540Z,46.34
2023-05-11T12:50:45.236Z,46.23
2023-05-11T12:53:14.120Z,47.34
2023-05-11T12:55:41.798Z,46.68
2023-05-11T12:58:18.795Z,47.43
2023-05-11T13:00:56.759Z,46.19
2023-05-11T13:03:29.015Z,46.64
2023-05-11T13:06:09.035Z,47.55
2023-05-11T13:08:37.493Z,46.75
2023-05-11T13:11:37.069Z,46.81
2023-05-11T13:14:16.856Z,48.02
2023-05-11T13:16:54.106Z,47.23
2023-05-11T13:19:31.304Z,46.46
2023-05-11T13:21:58.480Z,46.74
2023-05-11T13:24:26.582Z,46.76
2023-05-11T13:26:54.881Z,46.47
2023-05-11T13:29:21.777Z,45.72
2023-05-11T13:31:51.274Z,46.76
2023-05-11T13:34:19.344Z,46.31
2023-05-11T13:36:47.056Z,46.20
2023-05-11T13:39:13.832Z,45.92
2023-05-11T13:41:40.482Z,45.79
2023-05-11T13:44:07.373Z,45.65
2023-05-11T13:46:35.098Z,46.88
2023-05-11T13:49:01.893Z,47.43
2023-05-11T13:51:28.787Z,47.05
2023-05-11T13:53:55.524Z,48.26
2023-05-11T13:56:22.416Z,47.45
2023-05-11T13:58:49.298Z,48.69
2023-05-11T14:01:16.410Z,48.37
2023-05-11T14:03:43.596Z,48.65
2023-05-11T14:06:10.414Z,48.95
2023-05-11T14:08:37.104Z,49.07
2023-05-11T14:11:03.863Z,49.30
2023-05-11T14:13:30.644Z,49.48
2023-05-11T14:15:57.295Z,49.80
2023-05-11T14:18:26.047Z,50.31
2023-05-11T14:20:53.982Z,49.34
2023-05-11T14:23:20.731Z,49.93
2023-05-11T14:25:47.403Z,50.27
2023-05-11T14:28:14.193Z,49.85
2023-05-11T14:30:41.066Z,50.20
2023-05-11T14:33:07.823Z,50.66
2023-05-11T14:35:36.003Z,49.89
2023-05-11T14:38:04.629Z,50.29
2023-05-11T14:40:31.484Z,50.35
2023-05-11T14:42:58.250Z,49.99
2023-05-11T14:45:25.015Z,50.13
2023-05-11T14:47:51.894Z,50.52
2023-05-11T14:50:18.798Z,50.78
2023-05-11T14:52:45.686Z,50.97
2023-05-11T14:55:12.616Z,50.44
2023-05-11T14:57:39.565Z,50.29
2023-05-11T15:00:07.214Z,50.02
2023-05-11T15:02:34.317Z,51.23
2023-05-11T15:05:01.188Z,50.55
2023-05-11T15:07:28.042Z,50.92
2023-05-11T15:09:54.932Z,51.00
2023-05-11T15:12:21.851Z,51.37
2023-05-11T15:14:50.746Z,51.47
2023-05-11T15:17:17.526Z,51.22
2023-05-11T15:19:45.131Z,51.19
2023-05-11T15:22:12.025Z,51.68
2023-05-11T15:24:38.971Z,52.20
2023-05-11T15:27:06.056Z,51.86
2023-05-11T15:29:32.833Z,52.70
2023-05-11T15:32:08.815Z,52.28
2023-05-11T15:34:44.366Z,52.37
2023-05-11T15:37:17.933Z,52.15
2023-05-11T15:39:44.515Z,52.55
2023-05-11T15:42:11.199Z,52.41
2023-05-11T15:44:37.914Z,52.46
2023-05-11T15:47:06.118Z,52.48
2023-05-11T15:49:33.222Z,52.61
2023-05-11T15:52:00.213Z,52.19
2023-05-11T15:54:27.396Z,52.29
2023-05-11T15:56:54.305Z,52.71
2023-05-11T15:59:21.274Z,52.32
2023-05-11T16:01:48.484Z,52.42
2023-05-11T16:04:15.326Z,52.65
2023-05-11T16:06:42.075Z,53.20
2023-05-11T16:09:10.054Z,53.13
2023-05-11T16:11:37.004Z,53.13
2023-05-11T16:14:03.783Z,53.08
2023-05-11T16:16:31.096Z,53.08
2023-05-11T16:18:59.213Z,53.10
2023-05-11T16:21:26.635Z,53.27
2023-05-11T16:23:53.302Z,53.45
2023-05-11T16:26:20.450Z,53.74
2023-05-11T16:28:47.448Z,54.24
2023-05-11T16:31:14.236Z,53.77
2023-05-11T16:33:41.058Z,54.54
2023-05-11T16:36:10.316Z,54.37
2023-05-11T16:38:37.325Z,55.44
2023-05-11T16:41:04.082Z,55.15
2023-05-11T16:43:32.567Z,56.75
2023-05-11T16:45:59.477Z,56.01
2023-05-11T16:48:27.096Z,56.82
2023-05-11T16:50:56.560Z,55.63
2023-05-11T16:53:27.171Z,55.07
2023-05-11T16:55:55.380Z,55.34
2023-05-11T16:58:22.981Z,54.84
2023-05-11T17:00:50.107Z,54.25
2023-05-11T17:03:17.879Z,55.25
2023-05-11T17:05:45.358Z,55.82
2023-05-11T17:08:12.064Z,55.37
2023-05-11T17:10:38.829Z,55.74
2023-05-11T17:13:05.570Z,55.32
2023-05-11T17:15:35.349Z,55.98
2023-05-11T17:18:02.190Z,55.42
2023-05-11T17:20:32.604Z,56.18
2023-05-11T17:22:59.452Z,55.72
2023-05-11T17:25:26.161Z,56.63
2023-05-11T17:27:53.018Z,56.33
2023-05-11T17:30:20.958Z,55.51
2023-05-11T17:32:49.052Z,56.66
2023-05-11T17:35:15.884Z,56.64
2023-05-11T17:37:42.597Z,56.58
2023-05-11T17:40:09.556Z,56.01
2023-05-11T17:42:36.311Z,55.70
2023-05-11T17:45:03.351Z,58.24
2023-05-11T17:47:31.631Z,58.80
2023-05-11T17:50:01.727Z,59.23
2023-05-11T17:52:32.573Z,58.85
2023-05-11T17:54:59.797Z,59.70
2023-05-11T17:57:26.544Z,59.82
2023-05-11T17:59:53.611Z,59.04
2023-05-11T18:02:20.377Z,58.86
2023-05-11T18:04:47.232Z,59.55
2023-05-11T18:07:13.955Z,59.53
2023-05-11T18:09:40.680Z,59.76
2023-05-11T18:12:08.489Z,59.45
2023-05-11T18:14:37.572Z,59.25
2023-05-11T18:17:05.204Z,58.65
2023-05-11T18:19:31.986Z,59.53
2023-05-11T18:21:59.090Z,59.33
2023-05-11T18:24:26.751Z,59.24
2023-05-11T18:26:53.660Z,58.34
2023-05-11T18:29:21.950Z,58.57
2023-05-11T18:31:49.518Z,58.70
2023-05-11T18:34:16.317Z,57.93
2023-05-11T18:36:43.014Z,58.26
2023-05-11T18:39:09.664Z,58.49
2023-05-11T18:41:36.372Z,57.67
2023-05-11T18:44:03.289Z,57.93
2023-05-11T18:46:30.066Z,57.95
2023-05-11T18:48:57.238Z,58.42
2023-05-11T18:51:24.135Z,57.84
2023-05-11T18:53:51.053Z,58.63
2023-05-11T18:56:17.881Z,59.03
2023-05-11T18:58:46.453Z,58.39
2023-05-11T19:01:13.381Z,58.96
2023-05-11T19:03:40.325Z,59.51
2023-05-11T19:06:07.680Z,59.58
2023-05-11T19:08:35.146Z,59.53
2023-05-11T19:11:07.001Z,59.00
2023-05-11T19:13:37.067Z,59.85
2023-05-11T19:16:04.967Z,58.71
2023-05-11T19:18:35.630Z,58.35
2023-05-11T19:21:06.048Z,58.21
2023-05-11T19:23:33.462Z,58.58
2023-05-11T19:26:02.354Z,59.10
2023-05-11T19:28:36.200Z,59.08
2023-05-11T19:31:12.955Z,60.23
2023-05-11T19:33:47.263Z,59.94
2023-05-11T19:36:20.834Z,59.64
2023-05-11T19:38:47.554Z,60.04
2023-05-11T19:41:14.264Z,59.43
2023-05-11T19:43:40.897Z,59.65
2023-05-11T19:46:07.941Z,59.72
2023-05-11T19:48:34.861Z,58.75
2023-05-11T19:51:01.702Z,59.19
2023-05-11T19:53:28.753Z,59.08
2023-05-11T19:55:55.526Z,58.54
2023-05-11T19:58:23.390Z,59.14
2023-05-11T20:00:50.274Z,58.67
2023-05-11T20:03:17.210Z,58.05
2023-05-11T20:05:44.304Z,58.62
2023-05-11T20:08:11.227Z,58.31
2023-05-11T20:10:38.425Z,58.07
2023-05-11T20:13:06.250Z,58.09
2023-05-11T20:15:34.090Z,58.78
2023-05-11T20:18:04.320Z,59.04
2023-05-11T20:20:31.806Z,59.34
2023-05-11T20:22:59.308Z,59.09
2023-05-11T20:25:26.572Z,59.82
2023-05-11T20:27:53.289Z,60.08
2023-05-11T20:30:23.076Z,60.11
2023-05-11T20:35:19.909Z,60.59
2023-05-11T20:37:47.266Z,60.16
2023-05-11T20:40:14.024Z,59.66
2023-05-11T20:42:43.162Z,59.55
2023-05-11T20:45:10.325Z,59.90
2023-05-11T20:47:43.140Z,59.79
2023-05-11T20:50:10.498Z,59.31
2023-05-11T20:52:37.639Z,59.63
2023-05-11T20:55:04.956Z,60.24
2023-05-11T20:57:31.703Z,60.92
2023-05-11T21:02:28.534Z,61.49
2023-05-11T21:05:01.692Z,61.05
2023-05-11T21:07:29.317Z,62.47
2023-05-11T21:09:56.036Z,62.41
2023-05-11T21:12:22.828Z,63.13
2023-05-11T21:14:49.500Z,62.18
2023-05-11T21:17:17.487Z,62.44
2023-05-11T21:19:44.217Z,62.39
2023-05-11T21:22:11.030Z,63.00
2023-05-11T21:24:37.792Z,63.34
2023-05-11T21:27:05.369Z,62.64
2023-05-11T21:29:32.056Z,62.33
2023-05-11T21:31:58.765Z,62.57
2023-05-11T21:34:25.457Z,61.53
2023-05-11T21:36:52.429Z,61.55
2023-05-11T21:39:19.128Z,61.40
2023-05-11T21:41:45.868Z,61.35
2023-05-11T21:44:12.564Z,60.36
2023-05-11T21:46:39.300Z,61.01
2023-05-11T21:49:06.204Z,60.03
2023-05-11T21:51:33.462Z,60.79
2023-05-11T21:54:00.502Z,60.90
2023-05-11T21:56:27.248Z,61.20
2023-05-11T21:58:53.962Z,61.10
2023-05-11T22:01:20.756Z,61.22
2023-05-11T22:03:47.719Z,61.40
2023-05-11T22:06:15.151Z,61.94
2023-05-11T22:08:41.822Z,61.50
2023-05-11T22:11:08.641Z,60.90
2023-05-11T22:13:35.334Z,61.78
2023-05-11T22:16:03.337Z,61.53
2023-05-11T22:18:30.086Z,61.50
2023-05-11T22:20:56.810Z,62.94
2023-05-11T22:23:23.625Z,63.25
2023-05-11T22:25:50.820Z,64.05
2023-05-11T22:28:17.696Z,64.27
2023-05-11T22:30:44.889Z,64.30
2023-05-11T22:33:11.654Z,63.68
2023-05-11T22:35:38.420Z,63.04
2023-05-11T22:38:05.440Z,64.30
2023-05-11T22:40:32.159Z,64.84
2023-05-11T22:42:58.832Z,65.23
2023-05-11T22:45:25.620Z,64.98
2023-05-11T22:47:52.443Z,65.02
2023-05-11T22:50:19.421Z,64.59
2023-05-11T22:52:47.330Z,63.46
2023-05-11T22:55:14.172Z,62.52
2023-05-11T22:57:40.936Z,62.81
2023-05-11T23:00:10.651Z,63.71
2023-05-11T23:02:38.081Z,64.92
2023-05-11T23:05:05.433Z,66.38
2023-05-11T23:07:32.155Z,67.13
2023-05-11T23:09:58.902Z,66.30
2023-05-11T23:12:25.635Z,65.65
2023-05-11T23:14:52.431Z,65.62
2023-05-11T23:17:19.539Z,64.58
2023-05-11T23:19:46.218Z,63.82
2023-05-11T23:22:13.139Z,64.44
2023-05-11T23:24:39.810Z,63.92
2023-05-11T23:27:07.334Z,63.88
2023-05-11T23:29:34.188Z,63.34
2023-05-11T23:32:02.010Z,62.49
2023-05-11T23:34:28.831Z,62.63
2023-05-11T23:36:55.570Z,62.53
2023-05-11T23:39:22.332Z,61.51
2023-05-11T23:41:49.500Z,61.90
2023-05-11T23:44:17.540Z,62.49
2023-05-11T23:46:44.249Z,62.32
2023-05-11T23:49:11.037Z,62.14
2023-05-11T23:51:37.667Z,61.81
2023-05-11T23:54:04.421Z,62.21
2023-05-11T23:56:31.199Z,61.38
2023-05-11T23:58:58.031Z,61.88
